sensor_id;sensor_type;location;lat;lon;timestamp;pressure;altitude;pressure_sealevel;temperature;humidity
47726;BME280;33483;48.294;16.388;2023-05-07T00:01:19;99619.66;;;13.13;100.00
47726;BME280;33483;48.294;16.388;2023-05-07T00:03:46;99612.47;;;13.17;100.00
47726;BME280;33483;48.294;16.388;2023-05-07T00:06:14;99613.22;;;13.18;100.00
47726;BME280;33483;48.294;16.388;2023-05-07T00:08:41;99620.06;;;13.17;100.00
47726;BME280;33483;48.294;16.388;2023-05-07T00:11:08;99608.19;;;13.16;100.00
47726;BME280;33483;48.294;16.388;2023-05-07T00:13:35;99613.06;;;13.03;100.00
47726;BME280;33483;48.294;16.388;2023-05-07T00:16:07;99614.91;;;13.00;100.00
47726;BME280;33483;48.294;16.388;2023-05-07T00:18:34;99605.94;;;12.94;100.00
47726;BME280;33483;48.294;16.388;2023-05-07T00:21:05;99619.84;;;12.94;100.00
47726;BME280;33483;48.294;16.388;2023-05-07T00:23:32;99614.41;;;12.89;100.00
47726;BME280;33483;48.294;16.388;2023-05-07T00:25:59;99601.03;;;12.87;100.00
47726;BME280;33483;48.294;16.388;2023-05-07T00:28:26;99613.38;;;12.79;100.00
47726;BME280;33483;48.294;16.388;2023-05-07T00:30:54;99605.16;;;12.73;100.00
47726;BME280;33483;48.294;16.388;2023-05-07T00:33:21;99609.25;;;12.72;100.00
47726;BME280;33483;48.294;16.388;2023-05-07T00:35:49;99604.63;;;12.75;100.00
47726;BME280;33483;48.294;16.388;2023-05-07T00:38:16;99605.03;;;12.79;100.00
47726;BME280;33483;48.294;16.388;2023-05-07T00:40:43;99615.41;;;12.78;100.00
47726;BME280;33483;48.294;16.388;2023-05-07T00:43:10;99607.41;;;12.75;100.00
47726;BME280;33483;48.294;16.388;2023-05-07T00:45:37;99609.78;;;12.71;100.00
47726;BME280;33483;48.294;16.388;2023-05-07T00:48:04;99612.69;;;12.65;100.00
47726;BME280;33483;48.294;16.388;2023-05-07T00:50:31;99617.41;;;12.57;100.00
47726;BME280;33483;48.294;16.388;2023-05-07T00:52:59;99625.34;;;12.53;100.00
47726;BME280;33483;48.294;16.388;2023-05-07T00:55:27;99616.69;;;12.57;100.00
47726;BME280;33483;48.294;16.388;2023-05-07T00:57:54;99613.03;;;12.48;100.00
47726;BME280;33483;48.294;16.388;2023-05-07T01:00:21;99615.94;;;12.43;100.00
47726;BME280;33483;48.294;16.388;2023-05-07T01:02:50;99613.31;;;12.37;100.00
47726;BME280;33483;48.294;16.388;2023-05-07T01:05:21;99613.22;;;12.30;100.00
47726;BME280;33483;48.294;16.388;2023-05-07T01:07:53;99612.78;;;12.26;100.00
47726;BME280;33483;48.294;16.388;2023-05-07T01:10:21;99617.94;;;12.22;100.00
47726;BME280;33483;48.294;16.388;2023-05-07T01:12:49;99610.53;;;12.24;100.00
47726;BME280;33483;48.294;16.388;2023-05-07T01:15:17;99621.66;;;12.24;100.00
47726;BME280;33483;48.294;16.388;2023-05-07T01:17:44;99620.19;;;12.23;100.00
47726;BME280;33483;48.294;16.388;2023-05-07T01:20:18;99624.34;;;12.17;100.00
47726;BME280;33483;48.294;16.388;2023-05-07T01:22:47;99628.72;;;12.12;100.00
47726;BME280;33483;48.294;16.388;2023-05-07T01:25:15;99632.59;;;12.09;100.00
47726;BME280;33483;48.294;16.388;2023-05-07T01:27:48;99637.16;;;12.07;100.00
47726;BME280;33483;48.294;16.388;2023-05-07T01:30:16;99637.16;;;12.07;100.00
47726;BME280;33483;48.294;16.388;2023-05-07T01:32:46;99626.50;;;12.11;100.00
47726;BME280;33483;48.294;16.388;2023-05-07T01:35:21;99626.16;;;12.14;100.00
47726;BME280;33483;48.294;16.388;2023-05-07T01:37:49;99632.47;;;12.15;100.00
47726;BME280;33483;48.294;16.388;2023-05-07T01:40:17;99634.19;;;12.18;100.00
47726;BME280;33483;48.294;16.388;2023-05-07T01:42:44;99638.03;;;12.15;100.00
47726;BME280;33483;48.294;16.388;2023-05-07T01:45:12;99635.78;;;12.13;100.00
47726;BME280;33483;48.294;16.388;2023-05-07T01:47:39;99642.09;;;12.14;100.00
47726;BME280;33483;48.294;16.388;2023-05-07T01:50:07;99639.53;;;12.16;100.00
47726;BME280;33483;48.294;16.388;2023-05-07T01:52:38;99643.78;;;12.17;100.00
47726;BME280;33483;48.294;16.388;2023-05-07T01:55:06;99643.91;;;12.11;100.00
47726;BME280;33483;48.294;16.388;2023-05-07T01:57:33;99645.72;;;12.09;100.00
47726;BME280;33483;48.294;16.388;2023-05-07T02:00:01;99638.91;;;12.10;100.00
47726;BME280;33483;48.294;16.388;2023-05-07T02:02:40;99651.50;;;12.11;100.00
47726;BME280;33483;48.294;16.388;2023-05-07T02:05:18;99646.16;;;12.13;100.00
47726;BME280;33483;48.294;16.388;2023-05-07T02:07:49;99643.38;;;12.13;100.00
47726;BME280;33483;48.294;16.388;2023-05-07T02:10:17;99640.59;;;12.13;100.00
47726;BME280;33483;48.294;16.388;2023-05-07T02:12:44;99644.84;;;12.14;100.00
47726;BME280;33483;48.294;16.388;2023-05-07T02:15:11;99649.47;;;12.11;100.00
47726;BME280;33483;48.294;16.388;2023-05-07T02:17:39;99647.22;;;12.10;100.00
47726;BME280;33483;48.294;16.388;2023-05-07T02:20:07;99649.78;;;12.08;100.00
47726;BME280;33483;48.294;16.388;2023-05-07T02:22:40;99650.00;;;12.10;100.00
47726;BME280;33483;48.294;16.388;2023-05-07T02:25:08;99649.25;;;12.09;100.00
47726;BME280;33483;48.294;16.388;2023-05-07T02:27:35;99640.16;;;12.09;100.00
47726;BME280;33483;48.294;16.388;2023-05-07T02:30:05;99646.81;;;12.06;100.00
47726;BME280;33483;48.294;16.388;2023-05-07T02:32:32;99654.47;;;12.00;100.00
47726;BME280;33483;48.294;16.388;2023-05-07T02:34:59;99651.09;;;11.94;100.00
47726;BME280;33483;48.294;16.388;2023-05-07T02:37:26;99651.28;;;11.96;100.00
47726;BME280;33483;48.294;16.388;2023-05-07T02:39:56;99646.47;;;11.96;100.00
47726;BME280;33483;48.294;16.388;2023-05-07T02:42:23;99646.56;;;11.91;100.00
47726;BME280;33483;48.294;16.388;2023-05-07T02:44:50;99651.41;;;11.90;100.00
47726;BME280;33483;48.294;16.388;2023-05-07T02:47:18;99654.19;;;11.90;100.00
47726;BME280;33483;48.294;16.388;2023-05-07T02:49:45;99652.66;;;11.89;100.00
47726;BME280;33483;48.294;16.388;2023-05-07T02:52:12;99649.16;;;11.89;100.00
47726;BME280;33483;48.294;16.388;2023-05-07T02:54:40;99649.66;;;11.87;100.00
47726;BME280;33483;48.294;16.388;2023-05-07T02:57:06;99658.97;;;11.90;100.00
47726;BME280;33483;48.294;16.388;2023-05-07T02:59:33;99658.75;;;11.88;100.00
47726;BME280;33483;48.294;16.388;2023-05-07T03:02:00;99664.31;;;11.88;100.00
47726;BME280;33483;48.294;16.388;2023-05-07T03:04:29;99655.03;;;11.85;100.00
47726;BME280;33483;48.294;16.388;2023-05-07T03:06:56;99661.94;;;11.79;100.00
47726;BME280;33483;48.294;16.388;2023-05-07T03:09:23;99665.69;;;11.81;100.00
47726;BME280;33483;48.294;16.388;2023-05-07T03:11:51;99662.47;;;11.77;100.00
47726;BME280;33483;48.294;16.388;2023-05-07T03:14:18;99665.59;;;11.74;100.00
47726;BME280;33483;48.294;16.388;2023-05-07T03:16:48;99671.66;;;11.72;100.00
47726;BME280;33483;48.294;16.388;2023-05-07T03:19:16;99674.75;;;11.69;100.00
47726;BME280;33483;48.294;16.388;2023-05-07T03:21:45;99676.59;;;11.66;100.00
47726;BME280;33483;48.294;16.388;2023-05-07T03:24:12;99685.44;;;11.65;100.00
47726;BME280;33483;48.294;16.388;2023-05-07T03:26:39;99688.28;;;11.59;100.00
47726;BME280;33483;48.294;16.388;2023-05-07T03:29:09;99689.34;;;11.56;100.00
47726;BME280;33483;48.294;16.388;2023-05-07T03:31:36;99690.72;;;11.50;100.00
47726;BME280;33483;48.294;16.388;2023-05-07T03:34:03;99690.72;;;11.50;100.00
47726;BME280;33483;48.294;16.388;2023-05-07T03:36:31;99689.22;;;11.49;100.00
47726;BME280;33483;48.294;16.388;2023-05-07T03:38:58;99688.78;;;11.45;100.00
47726;BME280;33483;48.294;16.388;2023-05-07T03:41:35;99685.47;;;11.46;100.00
47726;BME280;33483;48.294;16.388;2023-05-07T03:44:02;99700.75;;;11.53;100.00
47726;BME280;33483;48.294;16.388;2023-05-07T03:46:29;99697.44;;;11.54;100.00
47726;BME280;33483;48.294;16.388;2023-05-07T03:48:57;99706.53;;;11.55;100.00
47726;BME280;33483;48.294;16.388;2023-05-07T03:51:24;99691.88;;;11.54;100.00
47726;BME280;33483;48.294;16.388;2023-05-07T03:53:52;99705.13;;;11.61;100.00
47726;BME280;33483;48.294;16.388;2023-05-07T03:56:21;99706.97;;;11.59;100.00
47726;BME280;33483;48.294;16.388;2023-05-07T03:58:53;99706.75;;;11.57;100.00
47726;BME280;33483;48.294;16.388;2023-05-07T04:01:21;99712.50;;;11.59;100.00
47726;BME280;33483;48.294;16.388;2023-05-07T04:03:48;99715.75;;;11.63;100.00
47726;BME280;33483;48.294;16.388;2023-05-07T04:06:16;99717.69;;;11.68;100.00
47726;BME280;33483;48.294;16.388;2023-05-07T04:08:46;99708.84;;;11.69;100.00
47726;BME280;33483;48.294;16.388;2023-05-07T04:11:13;99699.97;;;11.71;100.00
47726;BME280;33483;48.294;16.388;2023-05-07T04:13:43;99715.25;;;11.77;100.00
47726;BME280;33483;48.294;16.388;2023-05-07T04:16:11;99707.56;;;11.83;100.00
47726;BME280;33483;48.294;16.388;2023-05-07T04:18:38;99717.50;;;11.92;100.00
47726;BME280;33483;48.294;16.388;2023-05-07T04:21:17;99724.69;;;12.00;100.00
47726;BME280;33483;48.294;16.388;2023-05-07T04:23:47;99725.03;;;12.10;100.00
47726;BME280;33483;48.294;16.388;2023-05-07T04:26:17;99726.31;;;12.22;100.00
47726;BME280;33483;48.294;16.388;2023-05-07T04:28:45;99737.72;;;12.31;100.00
47726;BME280;33483;48.294;16.388;2023-05-07T04:31:14;99743.28;;;12.44;100.00
47726;BME280;33483;48.294;16.388;2023-05-07T04:33:43;99753.00;;;12.51;100.00
47726;BME280;33483;48.294;16.388;2023-05-07T04:36:13;99754.59;;;12.60;100.00
47726;BME280;33483;48.294;16.388;2023-05-07T04:38:56;99749.00;;;12.73;100.00
47726;BME280;33483;48.294;16.388;2023-05-07T04:41:23;99751.69;;;12.78;100.00
47726;BME280;33483;48.294;16.388;2023-05-07T04:43:53;99765.38;;;12.89;100.00
47726;BME280;33483;48.294;16.388;2023-05-07T04:46:22;99756.28;;;13.02;100.00
47726;BME280;33483;48.294;16.388;2023-05-07T04:48:53;99764.91;;;12.98;100.00
47726;BME280;33483;48.294;16.388;2023-05-07T04:51:20;99766.09;;;13.03;100.00
47726;BME280;33483;48.294;16.388;2023-05-07T04:53:50;99771.97;;;12.99;100.00
47726;BME280;33483;48.294;16.388;2023-05-07T04:56:17;99779.25;;;13.02;100.00
47726;BME280;33483;48.294;16.388;2023-05-07T04:58:46;99774.09;;;13.19;100.00
47726;BME280;33483;48.294;16.388;2023-05-07T05:01:15;99779.47;;;13.38;100.00
47726;BME280;33483;48.294;16.388;2023-05-07T05:03:43;99781.47;;;13.50;100.00
47726;BME280;33483;48.294;16.388;2023-05-07T05:06:10;99781.56;;;13.79;100.00
47726;BME280;33483;48.294;16.388;2023-05-07T05:08:37;99779.50;;;13.79;100.00
47726;BME280;33483;48.294;16.388;2023-05-07T05:11:04;99773.59;;;13.83;100.00
47726;BME280;33483;48.294;16.388;2023-05-07T05:13:34;99780.88;;;13.86;100.00
47726;BME280;33483;48.294;16.388;2023-05-07T05:16:07;99787.19;;;13.86;100.00
47726;BME280;33483;48.294;16.388;2023-05-07T05:18:35;99785.75;;;14.13;100.00
47726;BME280;33483;48.294;16.388;2023-05-07T05:21:02;99796.38;;;14.43;100.00
47726;BME280;33483;48.294;16.388;2023-05-07T05:23:34;99797.34;;;14.81;100.00
47726;BME280;33483;48.294;16.388;2023-05-07T05:26:01;99800.84;;;15.10;100.00
47726;BME280;33483;48.294;16.388;2023-05-07T05:28:32;99804.47;;;15.40;100.00
47726;BME280;33483;48.294;16.388;2023-05-07T05:31:01;99808.81;;;15.56;100.00
47726;BME280;33483;48.294;16.388;2023-05-07T05:33:32;99807.84;;;15.46;100.00
47726;BME280;33483;48.294;16.388;2023-05-07T05:36:03;99821.28;;;15.55;100.00
47726;BME280;33483;48.294;16.388;2023-05-07T05:38:32;99814.16;;;15.39;100.00
47726;BME280;33483;48.294;16.388;2023-05-07T05:40:59;99812.59;;;15.23;100.00
47726;BME280;33483;48.294;16.388;2023-05-07T05:43:30;99819.34;;;15.35;100.00
47726;BME280;33483;48.294;16.388;2023-05-07T05:45:58;99830.31;;;15.33;100.00
47726;BME280;33483;48.294;16.388;2023-05-07T05:48:26;99831.34;;;15.58;100.00
47726;BME280;33483;48.294;16.388;2023-05-07T05:50:53;99833.25;;;15.94;100.00
47726;BME280;33483;48.294;16.388;2023-05-07T05:53:20;99833.25;;;16.39;100.00
47726;BME280;33483;48.294;16.388;2023-05-07T05:55:47;99835.53;;;16.48;100.00
47726;BME280;33483;48.294;16.388;2023-05-07T05:58:16;99836.81;;;16.17;100.00
47726;BME280;33483;48.294;16.388;2023-05-07T06:00:52;99827.50;;;15.92;100.00
47726;BME280;33483;48.294;16.388;2023-05-07T06:03:25;99832.13;;;15.82;100.00
47726;BME280;33483;48.294;16.388;2023-05-07T06:05:54;99835.69;;;15.82;100.00
47726;BME280;33483;48.294;16.388;2023-05-07T06:08:22;99828.03;;;15.75;100.00
47726;BME280;33483;48.294;16.388;2023-05-07T06:10:49;99832.53;;;15.93;100.00
47726;BME280;33483;48.294;16.388;2023-05-07T06:13:16;99832.53;;;16.16;100.00
47726;BME280;33483;48.294;16.388;2023-05-07T06:15:43;99836.25;;;16.41;100.00
47726;BME280;33483;48.294;16.388;2023-05-07T06:18:12;99840.75;;;16.51;100.00
47726;BME280;33483;48.294;16.388;2023-05-07T06:20:40;99845.34;;;16.79;100.00
47726;BME280;33483;48.294;16.388;2023-05-07T06:23:13;99858.09;;;17.27;100.00
47726;BME280;33483;48.294;16.388;2023-05-07T06:25:49;99858.88;;;17.20;100.00
47726;BME280;33483;48.294;16.388;2023-05-07T06:28:24;99856.59;;;17.26;100.00
47726;BME280;33483;48.294;16.388;2023-05-07T06:30:51;99858.03;;;17.35;100.00
47726;BME280;33483;48.294;16.388;2023-05-07T06:33:18;99855.41;;;17.52;100.00
47726;BME280;33483;48.294;16.388;2023-05-07T06:35:46;99853.69;;;17.56;100.00
47726;BME280;33483;48.294;16.388;2023-05-07T06:38:14;99860.47;;;17.38;100.00
47726;BME280;33483;48.294;16.388;2023-05-07T06:40:43;99858.94;;;17.52;100.00
47726;BME280;33483;48.294;16.388;2023-05-07T06:43:10;99871.38;;;17.98;100.00
47726;BME280;33483;48.294;16.388;2023-05-07T06:45:47;99872.22;;;17.84;100.00
47726;BME280;33483;48.294;16.388;2023-05-07T06:48:16;99872.59;;;17.41;100.00
47726;BME280;33483;48.294;16.388;2023-05-07T06:50:56;99869.28;;;17.74;100.00
47726;BME280;33483;48.294;16.388;2023-05-07T06:53:28;99874.22;;;18.48;100.00
47726;BME280;33483;48.294;16.388;2023-05-07T06:55:59;99878.47;;;18.73;100.00
47726;BME280;33483;48.294;16.388;2023-05-07T06:58:27;99882.06;;;17.92;100.00
47726;BME280;33483;48.294;16.388;2023-05-07T07:00:54;99880.06;;;17.53;100.00
47726;BME280;33483;48.294;16.388;2023-05-07T07:03:22;99883.91;;;17.18;100.00
47726;BME280;33483;48.294;16.388;2023-05-07T07:05:54;99871.69;;;16.68;100.00
47726;BME280;33483;48.294;16.388;2023-05-07T07:08:23;99881.38;;;16.37;100.00
47726;BME280;33483;48.294;16.388;2023-05-07T07:10:51;99884.34;;;16.09;100.00
47726;BME280;33483;48.294;16.388;2023-05-07T07:13:18;99876.72;;;16.10;100.00
47726;BME280;33483;48.294;16.388;2023-05-07T07:15:46;99881.34;;;15.85;100.00
47726;BME280;33483;48.294;16.388;2023-05-07T07:18:16;99880.75;;;15.78;100.00
47726;BME280;33483;48.294;16.388;2023-05-07T07:20:44;99886.50;;;15.65;100.00
47726;BME280;33483;48.294;16.388;2023-05-07T07:23:13;99890.59;;;15.64;100.00
47726;BME280;33483;48.294;16.388;2023-05-07T07:25:40;99888.00;;;15.66;100.00
47726;BME280;33483;48.294;16.388;2023-05-07T07:28:08;99895.44;;;15.64;100.00
47726;BME280;33483;48.294;16.388;2023-05-07T07:30:39;99894.31;;;15.59;100.00
47726;BME280;33483;48.294;16.388;2023-05-07T07:33:07;99897.34;;;15.76;100.00
47726;BME280;33483;48.294;16.388;2023-05-07T07:35:36;99888.97;;;15.84;100.00
47726;BME280;33483;48.294;16.388;2023-05-07T07:38:05;99891.59;;;15.90;100.00
47726;BME280;33483;48.294;16.388;2023-05-07T07:40:36;99893.50;;;16.32;100.00
47726;BME280;33483;48.294;16.388;2023-05-07T07:43:05;99902.78;;;17.10;100.00
47726;BME280;33483;48.294;16.388;2023-05-07T07:45:33;99908.53;;;17.27;100.00
47726;BME280;33483;48.294;16.388;2023-05-07T07:48:10;99904.38;;;17.36;100.00
47726;BME280;33483;48.294;16.388;2023-05-07T07:50:38;99900.22;;;17.44;100.00
47726;BME280;33483;48.294;16.388;2023-05-07T07:53:15;99904.38;;;17.43;100.00
47726;BME280;33483;48.294;16.388;2023-05-07T07:55:42;99912.03;;;17.35;100.00
47726;BME280;33483;48.294;16.388;2023-05-07T07:58:12;99910.69;;;17.51;100.00
47726;BME280;33483;48.294;16.388;2023-05-07T08:00:40;99904.50;;;17.45;100.00
47726;BME280;33483;48.294;16.388;2023-05-07T08:03:10;99914.44;;;17.54;100.00
47726;BME280;33483;48.294;16.388;2023-05-07T08:05:42;99916.75;;;18.05;100.00
47726;BME280;33483;48.294;16.388;2023-05-07T08:08:12;99925.66;;;20.04;99.36
47726;BME280;33483;48.294;16.388;2023-05-07T08:10:42;99931.22;;;21.60;82.49
47726;BME280;33483;48.294;16.388;2023-05-07T08:13:17;99926.31;;;20.48;89.29
47726;BME280;33483;48.294;16.388;2023-05-07T08:15:45;99928.84;;;20.17;91.52
47726;BME280;33483;48.294;16.388;2023-05-07T08:18:14;99925.00;;;19.69;95.95
47726;BME280;33483;48.294;16.388;2023-05-07T08:20:42;99932.91;;;19.37;93.28
47726;BME280;33483;48.294;16.388;2023-05-07T08:23:16;99928.16;;;19.39;96.25
47726;BME280;33483;48.294;16.388;2023-05-07T08:25:44;99934.53;;;19.23;93.20
47726;BME280;33483;48.294;16.388;2023-05-07T08:28:12;99940.13;;;19.23;93.29
47726;BME280;33483;48.294;16.388;2023-05-07T08:30:40;99937.19;;;18.79;100.00
47726;BME280;33483;48.294;16.388;2023-05-07T08:33:08;99940.22;;;18.24;100.00
47726;BME280;33483;48.294;16.388;2023-05-07T08:35:35;99940.25;;;18.17;100.00
47726;BME280;33483;48.294;16.388;2023-05-07T08:38:05;99929.91;;;17.62;100.00
47726;BME280;33483;48.294;16.388;2023-05-07T08:40:35;99935.25;;;17.75;100.00
47726;BME280;33483;48.294;16.388;2023-05-07T08:43:05;99930.97;;;18.07;100.00
47726;BME280;33483;48.294;16.388;2023-05-07T08:45:36;99933.53;;;19.45;92.35
47726;BME280;33483;48.294;16.388;2023-05-07T08:48:09;99935.22;;;20.18;88.03
47726;BME280;33483;48.294;16.388;2023-05-07T08:50:39;99949.59;;;23.31;70.81
47726;BME280;33483;48.294;16.388;2023-05-07T08:53:07;99944.53;;;23.84;57.72
47726;BME280;33483;48.294;16.388;2023-05-07T08:55:34;99949.97;;;22.74;62.72
47726;BME280;33483;48.294;16.388;2023-05-07T08:58:03;99946.38;;;21.65;65.05
47726;BME280;33483;48.294;16.388;2023-05-07T09:00:36;99938.06;;;20.28;76.36
47726;BME280;33483;48.294;16.388;2023-05-07T09:03:07;99932.25;;;19.72;73.55
47726;BME280;33483;48.294;16.388;2023-05-07T09:05:36;99932.16;;;19.36;80.55
47726;BME280;33483;48.294;16.388;2023-05-07T09:08:07;99934.09;;;19.26;80.19
47726;BME280;33483;48.294;16.388;2023-05-07T09:10:37;99932.78;;;19.27;78.42
47726;BME280;33483;48.294;16.388;2023-05-07T09:13:08;99937.28;;;18.88;82.59
47726;BME280;33483;48.294;16.388;2023-05-07T09:15:35;99937.97;;;18.96;86.94
47726;BME280;33483;48.294;16.388;2023-05-07T09:18:03;99935.25;;;19.06;77.29
47726;BME280;33483;48.294;16.388;2023-05-07T09:20:35;99937.28;;;18.88;80.01
47726;BME280;33483;48.294;16.388;2023-05-07T09:23:03;99937.75;;;19.36;82.29
47726;BME280;33483;48.294;16.388;2023-05-07T09:25:31;99934.44;;;19.64;75.68
47726;BME280;33483;48.294;16.388;2023-05-07T09:28:04;99940.91;;;19.57;73.74
47726;BME280;33483;48.294;16.388;2023-05-07T09:30:34;99929.88;;;19.69;76.95
47726;BME280;33483;48.294;16.388;2023-05-07T09:33:05;99928.66;;;19.62;75.13
47726;BME280;33483;48.294;16.388;2023-05-07T09:35:35;99934.88;;;19.87;71.03
47726;BME280;33483;48.294;16.388;2023-05-07T09:38:09;99926.78;;;19.74;72.58
47726;BME280;33483;48.294;16.388;2023-05-07T09:40:36;99927.69;;;20.21;67.63
47726;BME280;33483;48.294;16.388;2023-05-07T09:43:09;99927.22;;;20.51;67.78
47726;BME280;33483;48.294;16.388;2023-05-07T09:45:41;99931.41;;;20.23;70.10
47726;BME280;33483;48.294;16.388;2023-05-07T09:48:12;99927.50;;;21.96;65.11
47726;BME280;33483;48.294;16.388;2023-05-07T09:50:48;99939.66;;;23.63;53.80
47726;BME280;33483;48.294;16.388;2023-05-07T09:53:18;99940.00;;;24.69;50.34
47726;BME280;33483;48.294;16.388;2023-05-07T09:55:49;99948.25;;;25.98;46.33
47726;BME280;33483;48.294;16.388;2023-05-07T09:58:21;99940.97;;;24.62;46.47
47726;BME280;33483;48.294;16.388;2023-05-07T10:00:50;99946.03;;;24.52;47.45
47726;BME280;33483;48.294;16.388;2023-05-07T10:03:19;99941.31;;;24.10;49.50
47726;BME280;33483;48.294;16.388;2023-05-07T10:05:55;99946.13;;;22.70;51.38
47726;BME280;33483;48.294;16.388;2023-05-07T10:08:23;99936.13;;;21.12;57.55
47726;BME280;33483;48.294;16.388;2023-05-07T10:10:54;99931.31;;;20.86;58.59
47726;BME280;33483;48.294;16.388;2023-05-07T10:13:24;99926.72;;;20.81;61.73
47726;BME280;33483;48.294;16.388;2023-05-07T10:15:55;99925.63;;;20.67;61.15
47726;BME280;33483;48.294;16.388;2023-05-07T10:18:25;99921.63;;;20.24;64.09
47726;BME280;33483;48.294;16.388;2023-05-07T10:21:04;99926.56;;;20.06;66.07
47726;BME280;33483;48.294;16.388;2023-05-07T10:23:34;99924.94;;;19.86;68.46
47726;BME280;33483;48.294;16.388;2023-05-07T10:26:05;99933.97;;;19.85;68.06
47726;BME280;33483;48.294;16.388;2023-05-07T10:28:36;99925.03;;;19.96;69.85
47726;BME280;33483;48.294;16.388;2023-05-07T10:33:53;99921.06;;;19.38;68.54
47726;BME280;33483;48.294;16.388;2023-05-07T10:36:22;99926.69;;;19.38;66.98
47726;BME280;33483;48.294;16.388;2023-05-07T10:38:52;99926.00;;;19.30;68.26
47726;BME280;33483;48.294;16.388;2023-05-07T10:41:20;99926.16;;;19.49;69.16
47726;BME280;33483;48.294;16.388;2023-05-07T10:43:49;99927.09;;;19.95;66.83
47726;BME280;33483;48.294;16.388;2023-05-07T10:46:22;99920.09;;;20.50;63.58
47726;BME280;33483;48.294;16.388;2023-05-07T10:49:18;99922.56;;;20.09;66.20
47726;BME280;33483;48.294;16.388;2023-05-07T10:52:15;99922.00;;;19.67;67.39
47726;BME280;33483;48.294;16.388;2023-05-07T11:01:10;99928.44;;;21.51;60.40
47726;BME280;33483;48.294;16.388;2023-05-07T11:15:05;99917.41;;;21.83;56.14
47726;BME280;33483;48.294;16.388;2023-05-07T11:28:58;99908.56;;;21.39;57.77
47726;BME280;33483;48.294;16.388;2023-05-07T11:31:27;99913.38;;;22.05;56.41
47726;BME280;33483;48.294;16.388;2023-05-07T11:33:59;99905.44;;;22.54;54.46
47726;BME280;33483;48.294;16.388;2023-05-07T11:36:30;99909.44;;;21.42;56.16
47726;BME280;33483;48.294;16.388;2023-05-07T11:38:59;99906.72;;;22.31;54.60
47726;BME280;33483;48.294;16.388;2023-05-07T11:41:33;99905.84;;;22.60;57.90
47726;BME280;33483;48.294;16.388;2023-05-07T11:44:00;99910.53;;;22.05;54.64
47726;BME280;33483;48.294;16.388;2023-05-07T11:46:30;99911.50;;;21.32;55.79
47726;BME280;33483;48.294;16.388;2023-05-07T11:48:58;99920.78;;;20.96;57.42
47726;BME280;33483;48.294;16.388;2023-05-07T11:51:27;99917.47;;;20.61;59.70
47726;BME280;33483;48.294;16.388;2023-05-07T11:53:54;99910.91;;;21.33;59.91
47726;BME280;33483;48.294;16.388;2023-05-07T11:56:24;99915.41;;;22.14;57.63
47726;BME280;33483;48.294;16.388;2023-05-07T11:58:52;99925.59;;;21.41;57.87
47726;BME280;33483;48.294;16.388;2023-05-07T12:01:18;99922.69;;;20.74;57.86
47726;BME280;33483;48.294;16.388;2023-05-07T12:03:46;99922.53;;;20.27;60.70
47726;BME280;33483;48.294;16.388;2023-05-07T12:06:14;99914.47;;;20.50;62.68
47726;BME280;33483;48.294;16.388;2023-05-07T12:08:45;99916.13;;;20.17;62.43
47726;BME280;33483;48.294;16.388;2023-05-07T12:11:15;99916.19;;;19.82;63.89
47726;BME280;33483;48.294;16.388;2023-05-07T12:13:44;99915.75;;;19.25;66.80
47726;BME280;33483;48.294;16.388;2023-05-07T12:16:11;99915.69;;;19.16;67.97
47726;BME280;33483;48.294;16.388;2023-05-07T12:18:41;99914.94;;;19.32;69.79
47726;BME280;33483;48.294;16.388;2023-05-07T12:21:08;99914.38;;;19.77;67.55
47726;BME280;33483;48.294;16.388;2023-05-07T12:23:36;99918.88;;;19.63;65.02
47726;BME280;33483;48.294;16.388;2023-05-07T12:26:03;99912.09;;;19.49;66.09
47726;BME280;33483;48.294;16.388;2023-05-07T12:28:37;99920.41;;;19.47;66.62
47726;BME280;33483;48.294;16.388;2023-05-07T12:31:07;99915.41;;;19.55;64.92
47726;BME280;33483;48.294;16.388;2023-05-07T12:33:37;99912.28;;;19.51;61.95
47726;BME280;33483;48.294;16.388;2023-05-07T12:36:05;99909.00;;;19.89;62.40
47726;BME280;33483;48.294;16.388;2023-05-07T12:38:37;99914.00;;;20.44;59.42
47726;BME280;33483;48.294;16.388;2023-05-07T12:41:05;99912.31;;;20.04;59.55
47726;BME280;33483;48.294;16.388;2023-05-07T12:43:32;99910.56;;;19.82;60.16
47726;BME280;33483;48.294;16.388;2023-05-07T12:46:00;99898.84;;;19.76;61.12
47726;BME280;33483;48.294;16.388;2023-05-07T12:48:28;99897.41;;;19.85;60.47
47726;BME280;33483;48.294;16.388;2023-05-07T12:50:56;99900.59;;;19.98;60.77
47726;BME280;33483;48.294;16.388;2023-05-07T12:53:26;99886.59;;;20.44;59.93
47726;BME280;33483;48.294;16.388;2023-05-07T12:55:54;99903.97;;;20.60;55.87
47726;BME280;33483;48.294;16.388;2023-05-07T12:58:28;99891.94;;;20.50;56.74
47726;BME280;33483;48.294;16.388;2023-05-07T13:00:58;99890.63;;;20.60;55.79
47726;BME280;33483;48.294;16.388;2023-05-07T13:03:28;99878.75;;;20.52;56.95
47726;BME280;33483;48.294;16.388;2023-05-07T13:05:57;99882.97;;;20.25;58.76
47726;BME280;33483;48.294;16.388;2023-05-07T13:08:34;99881.03;;;19.74;60.40
47726;BME280;33483;48.294;16.388;2023-05-07T13:11:03;99886.66;;;19.74;61.51
47726;BME280;33483;48.294;16.388;2023-05-07T13:13:31;99885.53;;;19.60;62.13
47726;BME280;33483;48.294;16.388;2023-05-07T13:15:59;99883.78;;;19.21;62.50
47726;BME280;33483;48.294;16.388;2023-05-07T13:18:29;99881.63;;;18.94;62.17
47726;BME280;33483;48.294;16.388;2023-05-07T13:20:56;99876.34;;;18.98;62.73
47726;BME280;33483;48.294;16.388;2023-05-07T13:23:24;99868.31;;;19.46;61.69
47726;BME280;33483;48.294;16.388;2023-05-07T13:25:51;99874.31;;;19.86;60.94